createdAt,value
2022-12-14T00:01:27.987Z,12.30
2022-12-14T00:03:55.705Z,12.20
2022-12-14T00:06:28.088Z,10.88
2022-12-14T00:08:57.601Z,11.18
2022-12-14T00:11:24.772Z,11.30
2022-12-14T00:13:53.641Z,12.13
2022-12-14T00:16:21.057Z,11.07
2022-12-14T00:18:52.739Z,11.43
2022-12-14T00:21:20.566Z,12.40
2022-12-14T00:23:51.825Z,11.93
2022-12-14T00:26:21.930Z,11.30
2022-12-14T00:28:49.995Z,10.82
2022-12-14T00:31:16.719Z,11.48
2022-12-14T00:33:43.988Z,10.77
2022-12-14T00:36:12.148Z,11.05
2022-12-14T00:38:39.445Z,11.80
2022-12-14T00:41:06.494Z,11.32
2022-12-14T00:43:33.429Z,11.10
2022-12-14T00:46:00.133Z,11.70
2022-12-14T00:48:28.058Z,10.98
2022-12-14T00:50:55.753Z,10.45
2022-12-14T00:53:23.303Z,11.07
2022-12-14T00:55:50.214Z,10.40
2022-12-14T00:58:19.913Z,10.60
2022-12-14T01:00:48.256Z,10.23
2022-12-14T01:03:15.467Z,10.70
2022-12-14T01:05:42.220Z,10.70
2022-12-14T01:08:16.088Z,10.48
2022-12-14T01:10:42.724Z,9.93
2022-12-14T01:13:11.158Z,11.02
2022-12-14T01:15:37.790Z,10.68
2022-12-14T01:18:04.771Z,10.68
2022-12-14T01:20:31.357Z,10.73
2022-12-14T01:22:58.542Z,9.90
2022-12-14T01:25:25.805Z,10.98
2022-12-14T01:27:52.481Z,10.57
2022-12-14T01:30:22.584Z,10.50
2022-12-14T01:32:49.228Z,10.27
2022-12-14T01:35:15.874Z,10.07
2022-12-14T01:37:42.539Z,10.65
2022-12-14T01:40:09.541Z,10.47
2022-12-14T01:42:37.117Z,10.38
2022-12-14T01:45:04.648Z,9.38
2022-12-14T01:47:44.427Z,9.93
2022-12-14T01:50:26.243Z,9.87
2022-12-14T01:52:56.817Z,10.15
2022-12-14T01:55:45.211Z,10.13
2022-12-14T01:58:19.714Z,9.68
2022-12-14T02:00:46.407Z,10.50
2022-12-14T02:03:18.072Z,11.02
2022-12-14T02:05:52.057Z,10.27
2022-12-14T02:08:19.995Z,10.15
2022-12-14T02:10:48.636Z,9.37
2022-12-14T02:13:26.883Z,9.80
2022-12-14T02:15:53.790Z,10.38
2022-12-14T02:18:31.334Z,9.85
2022-12-14T02:21:23.514Z,10.13
2022-12-14T02:24:22.973Z,10.18
2022-12-14T02:27:09.772Z,9.77
2022-12-14T02:30:12.311Z,10.03
2022-12-14T02:32:46.543Z,9.13
2022-12-14T02:35:37.279Z,10.13
2022-12-14T02:38:25.067Z,10.25
2022-12-14T02:41:12.857Z,10.17
2022-12-14T02:43:39.370Z,10.13
2022-12-14T02:46:31.727Z,10.20
2022-12-14T02:49:29.215Z,10.25
2022-12-14T02:52:13.006Z,9.98
2022-12-14T02:54:52.685Z,9.52
2022-12-14T02:57:36.472Z,9.68
2022-12-14T03:00:05.365Z,10.07
2022-12-14T03:02:37.311Z,9.05
2022-12-14T03:05:04.757Z,9.93
2022-12-14T03:07:33.999Z,10.02
2022-12-14T03:10:20.765Z,9.07
2022-12-14T03:12:55.306Z,9.60
2022-12-14T03:15:25.962Z,9.57
2022-12-14T03:17:57.973Z,9.15
2022-12-14T03:20:26.676Z,9.57
2022-12-14T03:23:03.803Z,9.55
2022-12-14T03:25:41.907Z,9.27
2022-12-14T03:28:17.355Z,9.80
2022-12-14T03:31:03.804Z,9.57
2022-12-14T03:33:31.948Z,9.15
2022-12-14T03:36:19.890Z,8.85
2022-12-14T03:38:50.637Z,9.65
2022-12-14T03:41:42.600Z,9.77
2022-12-14T03:44:45.218Z,9.93
2022-12-14T03:47:37.926Z,9.47
2022-12-14T03:50:45.918Z,9.80
2022-12-14T03:53:15.709Z,9.68
2022-12-14T03:55:59.261Z,9.18
2022-12-14T03:58:36.684Z,9.68
2022-12-14T04:01:19.282Z,9.73
2022-12-14T04:04:03.285Z,9.70
2022-12-14T04:07:07.425Z,9.53
2022-12-14T04:09:48.902Z,9.15
2022-12-14T04:12:51.264Z,10.15
2022-12-14T04:15:43.826Z,9.73
2022-12-14T04:18:39.990Z,9.30
2022-12-14T04:21:15.003Z,9.32
2022-12-14T04:24:12.071Z,9.07
2022-12-14T04:26:48.823Z,10.82
2022-12-14T04:29:44.133Z,9.00
2022-12-14T04:32:19.823Z,9.57
2022-12-14T04:34:50.992Z,9.47
2022-12-14T04:37:20.759Z,9.27
2022-12-14T04:40:01.882Z,10.02
2022-12-14T04:42:57.254Z,9.27
2022-12-14T04:45:32.286Z,9.98
2022-12-14T04:48:33.210Z,9.60
2022-12-14T04:51:23.078Z,9.15
2022-12-14T04:53:56.382Z,9.70
2022-12-14T04:56:31.452Z,8.88
2022-12-14T04:58:58.374Z,9.45
2022-12-14T05:01:43.321Z,9.50
2022-12-14T05:04:15.534Z,10.00
2022-12-14T05:07:18.382Z,10.38
2022-12-14T05:09:57.927Z,9.82
2022-12-14T05:12:29.728Z,9.80
2022-12-14T05:15:15.260Z,9.20
2022-12-14T05:17:42.907Z,9.65
2022-12-14T05:20:21.343Z,10.05
2022-12-14T05:22:48.417Z,10.40
2022-12-14T05:25:15.328Z,9.63
2022-12-14T05:27:42.011Z,9.43
2022-12-14T05:30:09.332Z,10.57
2022-12-14T05:32:36.171Z,9.38
2022-12-14T05:35:03.619Z,9.67
2022-12-14T05:37:30.261Z,9.57
2022-12-14T05:39:56.870Z,10.00
2022-12-14T05:42:23.543Z,8.98
2022-12-14T05:44:50.201Z,8.98
2022-12-14T05:47:16.847Z,9.68
2022-12-14T05:49:43.492Z,9.80
2022-12-14T05:52:10.092Z,8.97
2022-12-14T05:54:36.725Z,9.18
2022-12-14T05:57:03.569Z,7.97
2022-12-14T05:59:30.829Z,8.97
2022-12-14T06:01:58.009Z,9.07
2022-12-14T06:04:25.143Z,8.93
2022-12-14T06:06:51.755Z,8.55
2022-12-14T06:09:18.951Z,8.18
2022-12-14T06:11:47.116Z,9.15
2022-12-14T06:14:14.221Z,8.63
2022-12-14T06:16:42.434Z,7.70
2022-12-14T06:19:09.744Z,7.60
2022-12-14T06:21:38.657Z,7.97
2022-12-14T06:24:07.066Z,7.30
2022-12-14T06:26:40.759Z,6.85
2022-12-14T06:29:11.012Z,7.10
2022-12-14T06:31:38.314Z,7.85
2022-12-14T06:34:05.383Z,7.15
2022-12-14T06:36:36.918Z,7.35
2022-12-14T06:39:07.448Z,7.00
2022-12-14T06:41:34.576Z,7.43
2022-12-14T06:44:06.787Z,7.32
2022-12-14T06:46:34.451Z,6.32
2022-12-14T06:49:01.306Z,7.37
2022-12-14T06:51:27.965Z,6.47
2022-12-14T06:53:56.584Z,7.22
2022-12-14T06:56:25.445Z,6.65
2022-12-14T06:58:54.240Z,6.72
2022-12-14T07:01:23.730Z,7.50
2022-12-14T07:03:53.371Z,6.95
2022-12-14T07:06:20.558Z,6.80
2022-12-14T07:08:47.577Z,7.03
2022-12-14T07:11:15.898Z,6.75
2022-12-14T07:13:42.985Z,7.20
2022-12-14T07:16:16.118Z,5.95
2022-12-14T07:18:43.430Z,6.25
2022-12-14T07:21:12.687Z,7.30
2022-12-14T07:23:40.870Z,7.05
2022-12-14T07:26:10.641Z,7.22
2022-12-14T07:28:38.473Z,6.95
2022-12-14T07:31:07.742Z,6.77
2022-12-14T07:33:34.684Z,7.50
2022-12-14T07:36:03.034Z,7.05
2022-12-14T07:38:29.786Z,6.87
2022-12-14T07:41:05.456Z,6.53
2022-12-14T07:43:32.559Z,6.22
2022-12-14T07:46:04.213Z,6.72
2022-12-14T07:48:31.633Z,7.43
2022-12-14T07:51:09.634Z,6.90
2022-12-14T07:53:37.469Z,7.10
2022-12-14T07:56:10.963Z,6.70
2022-12-14T07:58:37.552Z,6.95
2022-12-14T08:01:20.443Z,7.30
2022-12-14T08:03:59.422Z,7.77
2022-12-14T08:06:28.954Z,7.32
2022-12-14T08:08:57.272Z,8.15
2022-12-14T08:11:24.521Z,7.25
2022-12-14T08:13:59.088Z,7.60
2022-12-14T08:16:26.945Z,7.18
2022-12-14T08:18:55.569Z,7.40
2022-12-14T08:21:23.578Z,7.27
2022-12-14T08:23:50.992Z,7.82
2022-12-14T08:26:18.183Z,7.30
2022-12-14T08:28:45.139Z,7.57
2022-12-14T08:31:16.920Z,7.60
2022-12-14T08:33:45.082Z,8.43
2022-12-14T08:36:20.566Z,7.07
2022-12-14T08:38:52.776Z,7.63
2022-12-14T08:41:19.694Z,8.43
2022-12-14T08:43:49.760Z,8.45
2022-12-14T08:46:17.145Z,9.07
2022-12-14T08:48:43.860Z,10.30
2022-12-14T08:51:11.254Z,10.20
2022-12-14T08:53:38.322Z,11.30
2022-12-14T08:56:10.897Z,10.23
2022-12-14T08:58:38.028Z,10.70
2022-12-14T09:01:13.847Z,9.95
2022-12-14T09:03:45.167Z,11.48
2022-12-14T09:06:14.938Z,11.63
2022-12-14T09:08:41.668Z,11.65
2022-12-14T09:11:15.197Z,11.67
2022-12-14T09:13:42.846Z,11.60
2022-12-14T09:16:15.796Z,11.45
2022-12-14T09:18:42.801Z,10.33
2022-12-14T09:21:09.753Z,10.73
2022-12-14T09:23:37.412Z,10.90
2022-12-14T09:26:21.935Z,11.25
2022-12-14T09:28:51.590Z,10.73
2022-12-14T09:31:21.695Z,11.02
2022-12-14T09:33:48.834Z,11.60
2022-12-14T09:36:20.432Z,10.97
2022-12-14T09:38:51.502Z,11.15
2022-12-14T09:41:30.099Z,12.23
2022-12-14T09:44:19.056Z,11.73
2022-12-14T09:46:54.637Z,12.25
2022-12-14T09:49:42.621Z,12.85
2022-12-14T09:52:15.801Z,12.63
2022-12-14T09:54:44.266Z,12.88
2022-12-14T09:57:20.066Z,11.93
2022-12-14T09:59:46.774Z,12.60
2022-12-14T10:02:33.625Z,12.07
2022-12-14T10:05:21.992Z,13.00
2022-12-14T10:08:13.678Z,13.00
2022-12-14T10:10:51.552Z,12.60
2022-12-14T10:13:33.314Z,11.80
2022-12-14T10:16:14.047Z,12.80
2022-12-14T10:19:01.089Z,12.48
2022-12-14T10:21:41.327Z,12.50
2022-12-14T10:24:24.019Z,12.13
2022-12-14T10:26:53.704Z,12.10
2022-12-14T10:29:34.929Z,12.02
2022-12-14T10:32:11.885Z,12.75
2022-12-14T10:34:41.460Z,12.98
2022-12-14T10:37:31.499Z,11.77
2022-12-14T10:40:17.524Z,12.93
2022-12-14T10:42:49.695Z,11.88
2022-12-14T10:45:40.370Z,12.18
2022-12-14T10:48:26.524Z,11.85
2022-12-14T10:51:05.190Z,11.18
2022-12-14T10:53:40.763Z,12.13
2022-12-14T10:56:16.813Z,11.32
2022-12-14T10:58:43.470Z,11.05
2022-12-14T11:01:14.614Z,11.45
2022-12-14T11:03:42.894Z,11.35
2022-12-14T11:06:17.145Z,10.57
2022-12-14T11:08:48.198Z,11.07
2022-12-14T11:11:23.011Z,11.57
2022-12-14T11:13:54.719Z,11.32
2022-12-14T11:16:36.757Z,11.55
2022-12-14T11:19:14.653Z,11.10
2022-12-14T11:21:41.316Z,11.73
2022-12-14T11:24:24.274Z,12.10
2022-12-14T11:26:53.873Z,11.85
2022-12-14T11:29:33.445Z,11.93
2022-12-14T11:32:00.686Z,11.50
2022-12-14T11:34:41.723Z,11.52
2022-12-14T11:37:34.136Z,11.75
2022-12-14T11:40:03.980Z,13.02
2022-12-14T11:42:30.983Z,12.73
2022-12-14T11:45:28.373Z,12.40
2022-12-14T11:48:13.569Z,12.75
2022-12-14T11:50:41.147Z,12.05
2022-12-14T11:53:12.311Z,12.48
2022-12-14T11:55:43.586Z,12.85
2022-12-14T11:58:27.855Z,12.73
2022-12-14T12:01:14.589Z,12.65
2022-12-14T12:03:50.400Z,12.82
2022-12-14T12:06:24.652Z,11.82
2022-12-14T12:08:58.253Z,11.85
2022-12-14T12:11:29.340Z,11.87
2022-12-14T12:14:13.515Z,10.88
2022-12-14T12:16:43.406Z,9.57
2022-12-14T12:19:15.578Z,10.73
2022-12-14T12:21:44.760Z,9.98
2022-12-14T12:24:22.242Z,10.50
2022-12-14T12:26:58.802Z,10.68
2022-12-14T12:29:38.002Z,10.88
2022-12-14T12:32:23.727Z,9.80
2022-12-14T12:35:21.565Z,10.55
2022-12-14T12:37:57.166Z,10.40
2022-12-14T12:40:38.636Z,10.43
2022-12-14T12:43:41.633Z,9.98
2022-12-14T12:46:19.558Z,9.50
2022-12-14T12:49:04.711Z,10.55
2022-12-14T12:51:54.198Z,10.00
2022-12-14T12:54:31.097Z,10.02
2022-12-14T12:57:00.726Z,11.77
2022-12-14T12:59:30.230Z,11.23
2022-12-14T13:02:32.827Z,10.63
2022-12-14T13:05:22.321Z,9.40
2022-12-14T13:07:58.963Z,10.23
2022-12-14T13:10:55.761Z,11.27
2022-12-14T13:13:33.349Z,9.93
2022-12-14T13:16:20.398Z,10.98
2022-12-14T13:19:13.429Z,9.33
2022-12-14T13:21:47.950Z,9.80
2022-12-14T13:24:19.121Z,8.63
2022-12-14T13:27:13.758Z,9.23
2022-12-14T13:30:05.557Z,9.60
2022-12-14T13:33:06.256Z,8.63
2022-12-14T13:36:18.021Z,8.50
2022-12-14T13:38:53.583Z,9.10
2022-12-14T13:41:45.138Z,9.50
2022-12-14T13:44:49.322Z,8.85
2022-12-14T13:47:21.033Z,8.73
2022-12-14T13:50:18.555Z,9.52
2022-12-14T13:52:44.071Z,9.23
2022-12-14T13:55:28.042Z,8.73
2022-12-14T13:58:29.391Z,8.52
2022-12-14T14:01:01.954Z,7.97
2022-12-14T14:03:34.978Z,8.45
2022-12-14T14:06:35.628Z,8.85
2022-12-14T14:09:30.121Z,8.60
2022-12-14T14:12:02.107Z,9.32
2022-12-14T14:14:58.499Z,8.80
2022-12-14T14:17:37.994Z,8.00
2022-12-14T14:20:36.534Z,8.05
2022-12-14T14:23:18.086Z,8.60
2022-12-14T14:25:47.112Z,8.43
2022-12-14T14:28:22.473Z,7.50
2022-12-14T14:30:52.573Z,7.88
2022-12-14T14:33:48.433Z,7.88
2022-12-14T14:36:33.598Z,7.82
2022-12-14T14:39:02.338Z,8.27
2022-12-14T14:41:35.970Z,8.57
2022-12-14T14:44:19.197Z,7.95
2022-12-14T14:46:49.078Z,9.63
2022-12-14T14:49:28.506Z,8.65
2022-12-14T14:51:55.190Z,8.57
2022-12-14T14:55:11.118Z,7.68
2022-12-14T14:57:34.502Z,8.30
2022-12-14T15:00:02.973Z,8.73
2022-12-14T15:02:53.581Z,8.75
2022-12-14T15:05:41.932Z,7.93
2022-12-14T15:08:43.610Z,8.57
2022-12-14T15:11:19.741Z,8.52
2022-12-14T15:13:53.120Z,8.20
2022-12-14T15:16:41.784Z,8.40
2022-12-14T15:19:33.558Z,8.80
2022-12-14T15:22:05.224Z,8.02
2022-12-14T15:24:39.778Z,8.98
2022-12-14T15:27:24.389Z,8.18
2022-12-14T15:29:52.073Z,7.93
2022-12-14T15:32:22.370Z,8.10
2022-12-14T15:34:56.556Z,8.13
2022-12-14T15:37:27.789Z,7.97
2022-12-14T15:40:07.606Z,8.10
2022-12-14T15:42:34.214Z,8.25
2022-12-14T15:45:09.452Z,7.57
2022-12-14T15:47:36.705Z,6.95
2022-12-14T15:50:26.258Z,8.23
2022-12-14T15:53:01.350Z,8.57
2022-12-14T15:55:27.972Z,7.73
2022-12-14T15:57:55.038Z,7.53
2022-12-14T16:00:22.008Z,7.97
2022-12-14T16:02:49.399Z,7.55
2022-12-14T16:05:22.353Z,8.65
2022-12-14T16:07:54.429Z,8.90
2022-12-14T16:10:33.468Z,7.60
2022-12-14T16:13:37.270Z,8.03
2022-12-14T16:16:08.957Z,7.60
2022-12-14T16:18:44.070Z,7.55
2022-12-14T16:21:34.819Z,7.70
2022-12-14T16:24:21.522Z,7.07
2022-12-14T16:26:59.166Z,7.35
2022-12-14T16:29:32.274Z,6.35
2022-12-14T16:32:14.211Z,6.13
2022-12-14T16:34:59.004Z,6.00
2022-12-14T16:37:33.926Z,6.03
2022-12-14T16:40:01.103Z,6.75
2022-12-14T16:42:31.229Z,6.80
2022-12-14T16:44:57.793Z,7.10
2022-12-14T16:47:35.346Z,6.35
2022-12-14T16:50:02.106Z,6.38
2022-12-14T16:52:32.933Z,7.22
2022-12-14T16:55:15.374Z,7.00
2022-12-14T16:57:48.141Z,7.57
2022-12-14T17:00:33.310Z,6.47
2022-12-14T17:03:08.958Z,7.35
2022-12-14T17:05:39.184Z,6.97
2022-12-14T17:08:07.730Z,6.70
2022-12-14T17:10:34.990Z,6.57
2022-12-14T17:13:03.276Z,7.82
2022-12-14T17:15:32.920Z,7.00
2022-12-14T17:18:01.964Z,7.10
2022-12-14T17:20:30.904Z,7.25
2022-12-14T17:23:01.775Z,7.28
2022-12-14T17:25:30.731Z,7.05
2022-12-14T17:27:57.979Z,6.72
2022-12-14T17:30:25.353Z,7.35
2022-12-14T17:32:53.474Z,7.20
2022-12-14T17:35:24.031Z,7.32
2022-12-14T17:37:50.724Z,7.55
2022-12-14T17:40:17.318Z,6.82
2022-12-14T17:42:49.654Z,7.73
2022-12-14T17:45:24.985Z,7.43
2022-12-14T17:47:52.000Z,8.00
2022-12-14T17:50:19.601Z,8.18
2022-12-14T17:52:47.214Z,8.07
2022-12-14T17:55:26.618Z,8.05
2022-12-14T17:57:54.674Z,7.55
2022-12-14T18:00:43.361Z,7.68
2022-12-14T18:03:12.188Z,8.52
2022-12-14T18:05:46.479Z,7.95
2022-12-14T18:08:16.505Z,8.20
2022-12-14T18:10:43.846Z,8.77
2022-12-14T18:13:12.434Z,9.20
2022-12-14T18:15:45.890Z,8.52
2022-12-14T18:18:18.522Z,8.02
2022-12-14T18:20:49.893Z,8.30
2022-12-14T18:23:17.790Z,7.72
2022-12-14T18:25:47.975Z,8.30
2022-12-14T18:28:15.595Z,8.65
2022-12-14T18:30:49.885Z,8.50
2022-12-14T18:33:22.909Z,8.65
2022-12-14T18:35:51.169Z,9.18
2022-12-14T18:38:17.786Z,8.27
2022-12-14T18:40:49.460Z,9.00
2022-12-14T18:43:25.842Z,8.45
2022-12-14T18:45:53.549Z,8.57
2022-12-14T18:48:20.920Z,8.50
2022-12-14T18:50:49.796Z,8.50
2022-12-14T18:53:19.028Z,7.50
2022-12-14T18:55:46.442Z,8.35
2022-12-14T18:58:22.247Z,8.63
2022-12-14T19:00:51.452Z,8.97
2022-12-14T19:03:19.086Z,8.27
2022-12-14T19:05:45.894Z,8.52
2022-12-14T19:08:12.592Z,7.88
2022-12-14T19:10:42.757Z,8.67
2022-12-14T19:13:25.123Z,8.20
2022-12-14T19:15:52.932Z,8.32
2022-12-14T19:18:19.608Z,8.90
2022-12-14T19:20:46.184Z,8.80
2022-12-14T19:23:17.967Z,7.88
2022-12-14T19:25:45.274Z,8.10
2022-12-14T19:28:30.736Z,8.48
2022-12-14T19:30:59.221Z,7.97
2022-12-14T19:33:26.808Z,8.32
2022-12-14T19:35:53.990Z,8.35
2022-12-14T19:38:20.701Z,7.65
2022-12-14T19:40:59.326Z,8.68
2022-12-14T19:43:26.096Z,8.43
2022-12-14T19:45:52.693Z,9.48
2022-12-14T19:48:19.889Z,9.07
2022-12-14T19:50:49.717Z,9.00
2022-12-14T19:53:23.024Z,9.38
2022-12-14T19:55:52.294Z,8.63
2022-12-14T19:58:21.758Z,8.57
2022-12-14T20:00:49.285Z,8.95
2022-12-14T20:03:16.089Z,9.50
2022-12-14T20:05:50.587Z,9.60
2022-12-14T20:08:17.287Z,9.88
2022-12-14T20:10:44.129Z,9.73
2022-12-14T20:13:10.772Z,8.90
2022-12-14T20:15:37.818Z,8.93
2022-12-14T20:18:07.102Z,9.77
2022-12-14T20:20:34.334Z,9.52
2022-12-14T20:23:00.946Z,9.50
2022-12-14T20:25:27.579Z,8.77
2022-12-14T20:27:54.326Z,8.35
2022-12-14T20:30:21.115Z,8.65
2022-12-14T20:32:49.137Z,8.00
2022-12-14T20:35:18.582Z,8.40
2022-12-14T20:37:45.722Z,8.10
2022-12-14T20:40:13.261Z,8.43
2022-12-14T20:42:39.931Z,8.30
2022-12-14T20:45:07.610Z,8.15
2022-12-14T20:47:34.559Z,8.27
2022-12-14T20:50:01.193Z,7.75
2022-12-14T20:52:27.758Z,7.70
2022-12-14T20:54:54.401Z,7.60
2022-12-14T20:57:21.029Z,8.23
2022-12-14T20:59:47.594Z,8.40
2022-12-14T21:02:19.016Z,8.00
2022-12-14T21:04:45.766Z,7.65
2022-12-14T21:07:12.451Z,7.88
2022-12-14T21:09:39.038Z,7.50
2022-12-14T21:12:20.738Z,7.38
2022-12-14T21:14:52.041Z,7.32
2022-12-14T21:17:20.648Z,7.63
2022-12-14T21:19:47.673Z,7.37
2022-12-14T21:22:16.902Z,6.47
2022-12-14T21:27:31.335Z,7.18
2022-12-14T21:29:59.614Z,7.00
2022-12-14T21:32:26.319Z,7.05
2022-12-14T21:34:52.991Z,7.18
2022-12-14T21:37:20.330Z,7.50
2022-12-14T21:39:53.837Z,7.97
2022-12-14T21:42:23.256Z,7.65
2022-12-14T21:44:51.398Z,6.97
2022-12-14T21:47:29.496Z,7.28
2022-12-14T21:49:56.539Z,7.68
2022-12-14T21:52:26.052Z,8.05
2022-12-14T21:54:52.695Z,7.40
2022-12-14T21:57:42.875Z,7.97
2022-12-14T22:00:16.801Z,8.18
2022-12-14T22:02:43.508Z,8.13
2022-12-14T22:05:10.754Z,7.57
2022-12-14T22:07:37.350Z,7.73
2022-12-14T22:10:04.467Z,8.45
2022-12-14T22:12:31.118Z,7.75
2022-12-14T22:14:57.684Z,7.88
2022-12-14T22:17:24.351Z,8.13
2022-12-14T22:19:52.083Z,8.15
2022-12-14T22:22:18.695Z,8.77
2022-12-14T22:24:48.394Z,8.15
2022-12-14T22:27:15.217Z,8.05
2022-12-14T22:29:41.791Z,8.43
2022-12-14T22:32:10.653Z,8.30
2022-12-14T22:34:37.259Z,8.60
2022-12-14T22:37:03.891Z,8.43
2022-12-14T22:39:30.797Z,7.85
2022-12-14T22:41:57.450Z,7.47
2022-12-14T22:44:24.070Z,7.93
2022-12-14T22:46:50.827Z,8.95
2022-12-14T22:49:19.015Z,8.52
2022-12-14T22:51:46.041Z,7.90
2022-12-14T22:54:22.148Z,8.40
2022-12-14T22:56:55.088Z,7.57
2022-12-14T22:59:30.282Z,8.20
2022-12-14T23:01:58.249Z,8.27
2022-12-14T23:04:25.068Z,9.50
2022-12-14T23:06:52.358Z,8.30
2022-12-14T23:09:37.710Z,8.48
2022-12-14T23:12:24.059Z,8.45
2022-12-14T23:15:09.526Z,8.13
2022-12-14T23:17:54.935Z,9.40
2022-12-14T23:20:40.207Z,8.55
2022-12-14T23:23:26.817Z,8.88
2022-12-14T23:26:12.343Z,8.83
2022-12-14T23:28:57.837Z,8.60
2022-12-14T23:31:43.368Z,9.38
2022-12-14T23:34:28.692Z,8.80
2022-12-14T23:37:19.903Z,8.20
2022-12-14T23:40:07.363Z,9.43
2022-12-14T23:42:52.483Z,8.38
2022-12-14T23:45:37.990Z,9.00
2022-12-14T23:48:23.522Z,8.85
2022-12-14T23:51:08.763Z,9.65
2022-12-14T23:53:54.397Z,9.30
2022-12-14T23:56:39.767Z,10.00
2022-12-14T23:59:31.523Z,9.52
